createdAt,value
2022-10-21T00:01:47.985Z,45.88
2022-10-21T00:04:14.519Z,46.00
2022-10-21T00:06:40.902Z,47.40
2022-10-21T00:09:07.314Z,46.58
2022-10-21T00:11:33.829Z,46.92
2022-10-21T00:14:00.155Z,45.58
2022-10-21T00:16:26.582Z,46.55
2022-10-21T00:18:52.906Z,46.88
2022-10-21T00:21:22.064Z,47.15
2022-10-21T00:23:50.087Z,46.78
2022-10-21T00:26:17.986Z,45.60
2022-10-21T00:28:44.902Z,45.42
2022-10-21T00:31:13.766Z,45.72
2022-10-21T00:33:40.485Z,47.10
2022-10-21T00:36:07.746Z,45.05
2022-10-21T00:38:35.972Z,47.67
2022-10-21T00:41:02.497Z,46.22
2022-10-21T00:43:32.447Z,46.42
2022-10-21T00:46:04.999Z,46.70
2022-10-21T00:48:35.798Z,46.25
2022-10-21T00:51:12.742Z,48.08
2022-10-21T00:53:42.849Z,47.78
2022-10-21T00:56:16.817Z,48.83
2022-10-21T00:58:48.886Z,46.88
2022-10-21T01:01:19.202Z,46.83
2022-10-21T01:03:47.918Z,48.00
2022-10-21T01:06:15.632Z,46.90
2022-10-21T01:08:42.063Z,46.47
2022-10-21T01:11:13.747Z,48.78
2022-10-21T01:14:17.823Z,50.47
2022-10-21T01:17:26.386Z,48.30
2022-10-21T01:20:19.069Z,47.22
2022-10-21T01:23:10.298Z,48.30
2022-10-21T01:26:20.830Z,49.55
2022-10-21T01:29:09.026Z,47.85
2022-10-21T01:32:04.586Z,46.28
2022-10-21T01:34:37.437Z,50.38
2022-10-21T01:37:11.787Z,47.45
2022-10-21T01:40:17.050Z,47.35
2022-10-21T01:43:13.755Z,47.05
2022-10-21T01:45:51.403Z,47.78
2022-10-21T01:48:22.054Z,48.25
2022-10-21T01:50:55.130Z,47.15
2022-10-21T01:53:26.597Z,47.53
2022-10-21T01:55:55.679Z,49.20
2022-10-21T01:58:26.872Z,48.47
2022-10-21T02:00:56.561Z,47.53
2022-10-21T02:03:30.321Z,48.05
2022-10-21T02:05:56.692Z,49.20
2022-10-21T02:08:23.225Z,48.28
2022-10-21T02:10:52.596Z,48.55
2022-10-21T02:13:25.035Z,47.07
2022-10-21T02:15:57.865Z,49.17
2022-10-21T02:18:25.716Z,47.63
2022-10-21T02:21:06.388Z,49.50
2022-10-21T02:23:51.086Z,47.67
2022-10-21T02:26:17.873Z,47.20
2022-10-21T02:28:44.340Z,48.58
2022-10-21T02:31:27.061Z,48.90
2022-10-21T02:34:05.927Z,47.30
2022-10-21T02:36:42.219Z,48.28
2022-10-21T02:39:23.759Z,49.63
2022-10-21T02:41:53.334Z,49.88
2022-10-21T02:44:20.079Z,48.78
2022-10-21T02:46:47.901Z,48.80
2022-10-21T02:49:16.991Z,49.72
2022-10-21T02:51:45.184Z,50.58
2022-10-21T02:54:12.186Z,51.53
2022-10-21T02:56:38.571Z,49.60
2022-10-21T02:59:04.909Z,49.08
2022-10-21T03:01:31.487Z,48.92
2022-10-21T03:03:57.895Z,52.28
2022-10-21T03:06:24.400Z,48.65
2022-10-21T03:08:50.824Z,49.10
2022-10-21T03:11:17.304Z,51.10
2022-10-21T03:13:43.827Z,51.83
2022-10-21T03:16:10.322Z,50.15
2022-10-21T03:18:36.762Z,50.55
2022-10-21T03:21:03.213Z,50.95
2022-10-21T03:23:29.954Z,50.15
2022-10-21T03:25:56.301Z,46.97
2022-10-21T03:28:22.669Z,51.50
2022-10-21T03:30:49.053Z,49.22
2022-10-21T03:33:15.490Z,47.53
2022-10-21T03:35:41.872Z,48.47
2022-10-21T03:38:08.293Z,49.40
2022-10-21T03:40:34.856Z,49.22
2022-10-21T03:43:01.290Z,49.35
2022-10-21T03:45:27.774Z,50.13
2022-10-21T03:47:54.267Z,48.60
2022-10-21T03:50:26.173Z,49.17
2022-10-21T03:52:53.257Z,48.67
2022-10-21T03:55:21.034Z,47.70
2022-10-21T03:57:48.135Z,48.45
2022-10-21T04:00:15.502Z,48.40
2022-10-21T04:02:42.270Z,47.17
2022-10-21T04:05:09.384Z,49.55
2022-10-21T04:07:36.013Z,48.55
2022-10-21T04:10:02.534Z,47.05
2022-10-21T04:12:28.967Z,47.85
2022-10-21T04:14:55.356Z,49.08
2022-10-21T04:17:21.770Z,49.75
2022-10-21T04:19:48.316Z,49.53
2022-10-21T04:22:17.472Z,49.10
2022-10-21T04:24:43.877Z,48.40
2022-10-21T04:27:10.341Z,48.55
2022-10-21T04:29:36.746Z,48.55
2022-10-21T04:32:03.513Z,47.97
2022-10-21T04:34:30.361Z,48.05
2022-10-21T04:36:59.850Z,48.17
2022-10-21T04:39:29.297Z,48.40
2022-10-21T04:41:56.411Z,49.17
2022-10-21T04:44:22.860Z,47.60
2022-10-21T04:46:49.249Z,48.47
2022-10-21T04:49:15.648Z,47.50
2022-10-21T04:51:42.151Z,49.15
2022-10-21T04:54:08.526Z,47.85
2022-10-21T04:56:34.857Z,48.83
2022-10-21T04:59:01.237Z,46.88
2022-10-21T05:01:27.680Z,49.20
2022-10-21T05:03:54.220Z,48.60
2022-10-21T05:06:20.865Z,48.15
2022-10-21T05:08:47.267Z,46.80
2022-10-21T05:11:13.835Z,48.50
2022-10-21T05:13:40.364Z,49.60
2022-10-21T05:16:07.252Z,48.55
2022-10-21T05:18:33.730Z,48.58
2022-10-21T05:21:00.434Z,48.53
2022-10-21T05:23:27.474Z,49.63
2022-10-21T05:25:54.374Z,48.45
2022-10-21T05:28:21.762Z,47.55
2022-10-21T05:30:48.483Z,48.30
2022-10-21T05:33:15.826Z,50.00
2022-10-21T05:35:42.341Z,47.80
2022-10-21T05:38:08.714Z,48.97
2022-10-21T05:40:35.105Z,48.17
2022-10-21T05:43:01.646Z,48.58
2022-10-21T05:45:28.235Z,49.10
2022-10-21T05:47:54.606Z,49.17
2022-10-21T05:50:21.319Z,48.95
2022-10-21T05:52:47.685Z,50.78
2022-10-21T05:55:14.139Z,51.13
2022-10-21T05:57:40.581Z,49.25
2022-10-21T06:00:08.141Z,50.15
2022-10-21T06:02:34.606Z,50.20
2022-10-21T06:05:01.017Z,49.15
2022-10-21T06:07:27.634Z,50.50
2022-10-21T06:09:54.985Z,50.17
2022-10-21T06:12:22.293Z,50.28
2022-10-21T06:14:48.754Z,50.08
2022-10-21T06:17:15.210Z,49.55
2022-10-21T06:19:41.691Z,48.88
2022-10-21T06:22:08.039Z,50.33
2022-10-21T06:24:34.607Z,50.60
2022-10-21T06:27:01.087Z,50.63
2022-10-21T06:29:27.584Z,51.80
2022-10-21T06:31:54.034Z,52.38
2022-10-21T06:34:20.534Z,50.85
2022-10-21T06:36:46.975Z,51.47
2022-10-21T06:39:13.392Z,51.50
2022-10-21T06:41:39.752Z,50.17
2022-10-21T06:44:06.181Z,50.63
2022-10-21T06:46:32.555Z,51.47
2022-10-21T06:48:58.933Z,52.80
2022-10-21T06:51:25.574Z,52.75
2022-10-21T06:53:54.625Z,53.40
2022-10-21T06:56:21.990Z,51.95
2022-10-21T06:58:50.222Z,52.38
2022-10-21T07:01:33.428Z,54.35
2022-10-21T07:04:01.548Z,54.20
2022-10-21T07:06:28.019Z,53.35
2022-10-21T07:08:58.274Z,54.28
2022-10-21T07:11:26.072Z,55.03
2022-10-21T07:13:52.491Z,51.15
2022-10-21T07:16:33.318Z,54.05
2022-10-21T07:19:00.207Z,52.90
2022-10-21T07:21:29.649Z,52.20
2022-10-21T07:23:59.305Z,52.53
2022-10-21T07:26:28.232Z,51.88
2022-10-21T07:28:57.915Z,52.40
2022-10-21T07:31:24.519Z,53.35
2022-10-21T07:33:51.292Z,51.85
2022-10-21T07:36:21.708Z,52.33
2022-10-21T07:38:49.760Z,53.78
2022-10-21T07:41:19.956Z,53.17
2022-10-21T07:43:46.886Z,53.65
2022-10-21T07:46:13.858Z,52.45
2022-10-21T07:48:40.234Z,53.22
2022-10-21T07:51:12.421Z,52.33
2022-10-21T07:53:40.226Z,52.70
2022-10-21T07:56:06.779Z,53.22
2022-10-21T07:58:33.639Z,52.03
2022-10-21T08:01:01.927Z,51.10
2022-10-21T08:03:28.810Z,51.03
2022-10-21T08:05:56.129Z,53.17
2022-10-21T08:08:28.482Z,53.85
2022-10-21T08:10:56.031Z,53.85
2022-10-21T08:13:23.240Z,54.50
2022-10-21T08:15:52.130Z,51.55
2022-10-21T08:18:19.493Z,53.88
2022-10-21T08:20:47.783Z,53.35
2022-10-21T08:23:16.980Z,53.63
2022-10-21T08:25:50.522Z,52.97
2022-10-21T08:28:17.975Z,53.92
2022-10-21T08:30:44.739Z,55.78
2022-10-21T08:33:12.368Z,50.60
2022-10-21T08:35:39.660Z,51.95
2022-10-21T08:40:41.316Z,52.03
2022-10-21T08:43:22.275Z,49.88
2022-10-21T08:45:54.508Z,50.33
2022-10-21T08:48:26.119Z,51.78
2022-10-21T08:50:56.117Z,50.20
2022-10-21T08:53:24.393Z,51.97
2022-10-21T08:55:56.064Z,49.45
2022-10-21T08:58:23.733Z,48.63
2022-10-21T09:01:03.259Z,50.80
2022-10-21T09:03:54.363Z,49.25
2022-10-21T09:06:27.946Z,48.78
2022-10-21T09:08:57.423Z,48.45
2022-10-21T09:11:33.074Z,48.88
2022-10-21T09:14:17.090Z,47.63
2022-10-21T09:17:01.051Z,47.38
2022-10-21T09:20:01.853Z,47.03
2022-10-21T09:22:46.919Z,47.38
2022-10-21T09:25:25.441Z,47.22
2022-10-21T09:27:57.236Z,46.70
2022-10-21T09:30:24.822Z,46.45
2022-10-21T09:32:56.432Z,44.38
2022-10-21T09:35:23.916Z,44.13
2022-10-21T09:38:02.270Z,44.78
2022-10-21T09:40:30.921Z,42.38
2022-10-21T09:43:00.609Z,42.15
2022-10-21T09:45:37.638Z,42.33
2022-10-21T09:48:50.247Z,41.97
2022-10-21T09:51:28.756Z,38.70
2022-10-21T09:54:17.913Z,40.28
2022-10-21T09:56:49.946Z,41.63
2022-10-21T09:59:19.560Z,39.10
2022-10-21T10:01:46.468Z,38.45
2022-10-21T10:04:29.347Z,38.92
2022-10-21T10:06:56.659Z,36.88
2022-10-21T10:09:34.255Z,37.80
2022-10-21T10:12:12.481Z,34.50
2022-10-21T10:14:41.209Z,32.67
2022-10-21T10:17:25.607Z,30.90
2022-10-21T10:20:07.319Z,29.55
2022-10-21T10:22:41.727Z,27.98
2022-10-21T10:25:14.375Z,28.65
2022-10-21T10:27:59.283Z,28.80
2022-10-21T10:30:36.123Z,26.02
2022-10-21T10:33:09.428Z,25.88
2022-10-21T10:35:37.849Z,24.20
2022-10-21T10:38:05.350Z,24.13
2022-10-21T10:40:41.741Z,22.52
2022-10-21T10:43:21.104Z,22.05
2022-10-21T10:45:54.003Z,22.98
2022-10-21T10:48:25.418Z,22.42
2022-10-21T10:50:51.899Z,22.08
2022-10-21T10:53:32.053Z,21.40
2022-10-21T10:56:14.931Z,21.15
2022-10-21T10:59:01.835Z,21.15
2022-10-21T11:01:34.287Z,21.15
2022-10-21T11:04:21.114Z,20.67
2022-10-21T11:06:52.363Z,20.63
2022-10-21T11:09:22.608Z,19.98
2022-10-21T11:11:54.678Z,20.38
2022-10-21T11:14:22.833Z,20.35
2022-10-21T11:17:01.047Z,19.83
2022-10-21T11:19:39.780Z,19.48
2022-10-21T11:22:34.176Z,19.75
2022-10-21T11:25:21.977Z,18.38
2022-10-21T11:27:59.635Z,18.92
2022-10-21T11:30:39.196Z,19.05
2022-10-21T11:33:19.071Z,17.88
2022-10-21T11:38:50.324Z,18.42
2022-10-21T11:41:31.911Z,18.65
2022-10-21T11:44:31.498Z,18.17
2022-10-21T11:47:09.477Z,17.85
2022-10-21T11:49:50.547Z,18.40
2022-10-21T11:52:38.730Z,18.35
2022-10-21T11:55:27.329Z,17.13
2022-10-21T11:58:08.034Z,17.58
2022-10-21T12:00:48.902Z,17.58
2022-10-21T12:03:44.032Z,17.58
2022-10-21T12:06:34.653Z,16.92
2022-10-21T12:09:06.208Z,16.48
2022-10-21T12:11:44.610Z,16.52
2022-10-21T12:14:31.059Z,17.92
2022-10-21T12:17:01.538Z,17.58
2022-10-21T12:19:28.325Z,16.92
2022-10-21T12:21:55.093Z,17.83
2022-10-21T12:24:38.453Z,18.17
2022-10-21T12:27:25.934Z,18.52
2022-10-21T12:30:23.475Z,17.33
2022-10-21T12:33:12.825Z,17.90
2022-10-21T12:35:50.421Z,17.23
2022-10-21T12:38:43.725Z,18.17
2022-10-21T12:41:26.195Z,18.00
2022-10-21T12:43:53.911Z,18.67
2022-10-21T12:46:26.226Z,19.00
2022-10-21T12:48:52.935Z,18.88
2022-10-21T12:51:25.922Z,18.33
2022-10-21T12:53:58.292Z,18.30
2022-10-21T12:56:42.615Z,19.52
2022-10-21T12:59:44.663Z,18.13
2022-10-21T13:02:25.025Z,17.67
2022-10-21T13:04:54.862Z,19.38
2022-10-21T13:07:21.178Z,20.17
2022-10-21T13:09:56.712Z,20.35
2022-10-21T13:12:23.081Z,19.17
2022-10-21T13:14:52.090Z,19.92
2022-10-21T13:17:21.438Z,18.65
2022-10-21T13:19:48.851Z,19.17
2022-10-21T13:22:20.064Z,20.30
2022-10-21T13:24:47.119Z,19.60
2022-10-21T13:27:35.858Z,18.40
2022-10-21T13:30:03.041Z,19.75
2022-10-21T13:33:02.672Z,18.65
2022-10-21T13:35:36.765Z,18.83
2022-10-21T13:38:21.014Z,18.50
2022-10-21T13:40:51.122Z,19.98
2022-10-21T13:45:49.883Z,18.48
2022-10-21T13:48:19.760Z,18.98
2022-10-21T13:50:48.652Z,18.90
2022-10-21T13:53:17.728Z,17.52
2022-10-21T13:56:01.762Z,16.95
2022-10-21T13:58:30.428Z,14.90
2022-10-21T14:00:59.003Z,13.45
2022-10-21T14:03:26.543Z,13.07
2022-10-21T14:05:58.145Z,13.25
2022-10-21T14:08:34.123Z,13.38
2022-10-21T14:11:24.110Z,13.52
2022-10-21T14:13:51.321Z,13.05
2022-10-21T14:16:40.919Z,13.50
2022-10-21T14:19:14.441Z,13.20
2022-10-21T14:21:45.199Z,12.82
2022-10-21T14:24:38.951Z,13.70
2022-10-21T14:27:06.501Z,13.43
2022-10-21T14:29:35.635Z,13.40
2022-10-21T14:32:03.550Z,13.52
2022-10-21T14:34:32.868Z,13.35
2022-10-21T14:37:23.147Z,13.38
2022-10-21T14:39:49.886Z,13.32
2022-10-21T14:42:25.582Z,12.80
2022-10-21T14:45:02.497Z,13.32
2022-10-21T14:47:29.028Z,12.40
2022-10-21T14:49:59.765Z,13.63
2022-10-21T14:52:42.599Z,13.50
2022-10-21T14:55:14.248Z,12.88
2022-10-21T14:57:45.550Z,14.05
2022-10-21T15:00:30.201Z,13.57
2022-10-21T15:02:58.372Z,13.40
2022-10-21T15:05:37.663Z,13.63
2022-10-21T15:08:19.190Z,13.43
2022-10-21T15:10:46.499Z,13.98
2022-10-21T15:13:17.206Z,14.60
2022-10-21T15:15:55.087Z,14.68
2022-10-21T15:18:43.779Z,13.73
2022-10-21T15:21:13.785Z,14.35
2022-10-21T15:23:43.361Z,15.00
2022-10-21T15:26:19.158Z,14.05
2022-10-21T15:28:45.663Z,13.00
2022-10-21T15:31:20.304Z,13.60
2022-10-21T15:33:48.819Z,13.60
2022-10-21T15:36:16.070Z,13.57
2022-10-21T15:38:46.829Z,14.02
2022-10-21T15:41:18.883Z,13.30
2022-10-21T15:43:57.131Z,14.50
2022-10-21T15:46:25.659Z,14.63
2022-10-21T15:48:52.753Z,14.02
2022-10-21T15:51:19.820Z,13.75
2022-10-21T15:53:46.231Z,12.90
2022-10-21T15:56:17.070Z,13.82
2022-10-21T15:58:43.511Z,12.95
2022-10-21T16:01:15.942Z,13.98
2022-10-21T16:03:43.450Z,14.38
2022-10-21T16:06:19.715Z,14.68
2022-10-21T16:08:46.883Z,14.18
2022-10-21T16:11:25.606Z,14.55
2022-10-21T16:14:01.476Z,15.30
2022-10-21T16:16:27.965Z,16.38
2022-10-21T16:18:54.322Z,16.52
2022-10-21T16:21:22.592Z,16.73
2022-10-21T16:23:49.842Z,18.50
2022-10-21T16:26:23.647Z,15.57
2022-10-21T16:28:51.645Z,16.85
2022-10-21T16:31:18.907Z,17.45
2022-10-21T16:33:45.661Z,16.63
2022-10-21T16:36:23.924Z,16.98
2022-10-21T16:38:51.250Z,17.75
2022-10-21T16:41:28.722Z,17.15
2022-10-21T16:43:56.270Z,18.08
2022-10-21T16:46:41.783Z,16.77
2022-10-21T16:49:14.841Z,17.48
2022-10-21T16:51:45.992Z,17.02
2022-10-21T16:54:13.114Z,18.17
2022-10-21T16:56:39.580Z,18.77
2022-10-21T16:59:06.113Z,19.58
2022-10-21T17:01:32.726Z,18.08
2022-10-21T17:03:59.171Z,17.38
2022-10-21T17:06:26.546Z,17.98
2022-10-21T17:08:55.242Z,19.42
2022-10-21T17:11:25.269Z,19.73
2022-10-21T17:13:51.898Z,17.95
2022-10-21T17:16:20.062Z,19.90
2022-10-21T17:18:47.694Z,19.85
2022-10-21T17:21:26.324Z,22.33
2022-10-21T17:23:53.824Z,20.70
2022-10-21T17:26:20.631Z,21.27
2022-10-21T17:28:47.354Z,20.73
2022-10-21T17:31:19.900Z,20.48
2022-10-21T17:33:47.469Z,20.42
2022-10-21T17:36:15.649Z,19.30
2022-10-21T17:38:42.100Z,19.90
2022-10-21T17:41:09.866Z,19.83
2022-10-21T17:43:36.970Z,19.70
2022-10-21T17:46:04.247Z,19.50
2022-10-21T17:48:32.159Z,18.70
2022-10-21T17:51:01.663Z,20.00
2022-10-21T17:53:30.064Z,19.30
2022-10-21T17:56:00.800Z,20.52
2022-10-21T17:58:27.891Z,19.15
2022-10-21T18:00:57.980Z,18.52
2022-10-21T18:05:52.441Z,19.65
2022-10-21T18:08:19.027Z,19.38
2022-10-21T18:10:53.238Z,19.27
2022-10-21T18:13:19.895Z,19.15
2022-10-21T18:15:46.302Z,20.05
2022-10-21T18:18:12.925Z,20.08
2022-10-21T18:20:39.401Z,20.00
2022-10-21T18:23:05.766Z,19.98
2022-10-21T18:25:35.374Z,18.92
2022-10-21T18:28:01.835Z,19.92
2022-10-21T18:30:28.343Z,19.70
2022-10-21T18:32:54.767Z,19.60
2022-10-21T18:35:21.131Z,19.70
2022-10-21T18:37:47.773Z,21.13
2022-10-21T18:40:14.273Z,20.63
2022-10-21T18:42:40.795Z,21.75
2022-10-21T18:45:07.603Z,21.45
2022-10-21T18:47:34.706Z,20.42
2022-10-21T18:50:05.072Z,20.33
2022-10-21T18:52:31.430Z,21.30
2022-10-21T18:54:57.987Z,20.70
2022-10-21T18:57:24.492Z,19.67
2022-10-21T18:59:50.910Z,20.80
2022-10-21T19:02:20.950Z,20.08
2022-10-21T19:04:47.744Z,22.10
2022-10-21T19:07:14.517Z,22.85
2022-10-21T19:09:40.886Z,23.20
2022-10-21T19:12:10.663Z,22.05
2022-10-21T19:14:40.887Z,25.73
2022-10-21T19:17:07.411Z,23.23
2022-10-21T19:19:37.152Z,25.40
2022-10-21T19:22:05.711Z,25.63
2022-10-21T19:24:32.106Z,27.70
2022-10-21T19:26:59.002Z,26.77
2022-10-21T19:29:26.016Z,28.55
2022-10-21T19:31:52.743Z,28.40
2022-10-21T19:34:22.379Z,30.27
2022-10-21T19:36:49.736Z,30.70
2022-10-21T19:39:16.319Z,31.00
2022-10-21T19:41:43.226Z,30.17
2022-10-21T19:44:09.873Z,30.50
2022-10-21T19:46:36.927Z,33.03
2022-10-21T19:49:05.241Z,33.63
2022-10-21T19:51:32.480Z,34.50
2022-10-21T19:53:59.363Z,33.30
2022-10-21T19:56:29.612Z,35.85
2022-10-21T19:58:57.312Z,34.40
2022-10-21T20:01:26.283Z,34.58
2022-10-21T20:03:54.362Z,34.63
2022-10-21T20:06:30.033Z,35.92
2022-10-21T20:09:00.382Z,35.97
2022-10-21T20:11:27.960Z,36.33
2022-10-21T20:13:55.253Z,35.88
2022-10-21T20:16:27.338Z,38.53
2022-10-21T20:18:54.909Z,48.03
2022-10-21T20:21:22.880Z,42.58
2022-10-21T20:23:50.549Z,42.63
2022-10-21T20:26:16.995Z,41.42
2022-10-21T20:28:43.453Z,45.63
2022-10-21T20:31:12.309Z,45.22
2022-10-21T20:33:42.093Z,42.00
2022-10-21T20:36:20.730Z,40.72
2022-10-21T20:38:47.864Z,38.05
2022-10-21T20:41:17.731Z,39.22
2022-10-21T20:43:44.296Z,38.08
2022-10-21T20:46:13.077Z,41.83
2022-10-21T20:48:44.692Z,41.17
2022-10-21T20:51:16.539Z,42.25
2022-10-21T20:53:50.232Z,40.25
2022-10-21T20:56:16.822Z,39.72
2022-10-21T20:58:43.401Z,39.08
2022-10-21T21:01:17.872Z,38.75
2022-10-21T21:03:45.555Z,39.38
2022-10-21T21:06:12.571Z,41.40
2022-10-21T21:08:48.664Z,41.17
2022-10-21T21:11:25.049Z,41.08
2022-10-21T21:13:51.425Z,42.55
2022-10-21T21:16:20.340Z,42.53
2022-10-21T21:18:51.615Z,41.13
2022-10-21T21:21:20.367Z,40.95
2022-10-21T21:23:46.807Z,43.15
2022-10-21T21:26:17.661Z,43.40
2022-10-21T21:28:45.434Z,44.88
2022-10-21T21:31:12.788Z,43.50
2022-10-21T21:33:39.826Z,43.55
2022-10-21T21:36:06.868Z,45.70
2022-10-21T21:38:34.709Z,45.55
2022-10-21T21:41:03.550Z,43.92
2022-10-21T21:43:32.754Z,44.53
2022-10-21T21:45:59.716Z,44.58
2022-10-21T21:48:26.994Z,43.08
2022-10-21T21:51:04.568Z,45.22
2022-10-21T21:53:31.060Z,46.17
2022-10-21T21:56:03.280Z,47.38
2022-10-21T21:58:30.342Z,47.13
2022-10-21T22:00:56.693Z,48.40
2022-10-21T22:03:23.416Z,46.40
2022-10-21T22:05:50.086Z,46.90
2022-10-21T22:08:16.471Z,47.10
2022-10-21T22:10:42.926Z,48.25
2022-10-21T22:13:09.403Z,48.08
2022-10-21T22:15:47.445Z,49.85
2022-10-21T22:18:14.747Z,47.22
2022-10-21T22:20:41.158Z,49.28
2022-10-21T22:23:07.592Z,48.25
2022-10-21T22:25:34.005Z,49.08
2022-10-21T22:28:00.499Z,49.85
2022-10-21T22:30:26.849Z,50.97
2022-10-21T22:32:53.230Z,47.63
2022-10-21T22:35:19.873Z,48.15
2022-10-21T22:37:46.288Z,49.88
2022-10-21T22:40:12.824Z,50.47
2022-10-21T22:42:39.257Z,49.80
2022-10-21T22:45:06.360Z,50.17
2022-10-21T22:47:32.861Z,50.80
2022-10-21T22:49:59.288Z,49.38
2022-10-21T22:52:25.742Z,47.35
2022-10-21T22:54:52.113Z,49.63
2022-10-21T22:57:20.540Z,50.53
2022-10-21T22:59:52.051Z,48.78
2022-10-21T23:02:19.837Z,47.97
2022-10-21T23:04:46.206Z,48.20
2022-10-21T23:07:12.862Z,46.40
2022-10-21T23:09:39.243Z,47.25
2022-10-21T23:12:05.751Z,45.20
2022-10-21T23:14:32.165Z,45.83
2022-10-21T23:16:58.530Z,46.85
2022-10-21T23:19:24.965Z,48.33
2022-10-21T23:21:51.326Z,45.28
2022-10-21T23:24:17.727Z,46.28
2022-10-21T23:26:44.105Z,46.67
2022-10-21T23:29:10.572Z,46.65
2022-10-21T23:31:36.969Z,44.70
2022-10-21T23:34:05.845Z,44.90
2022-10-21T23:36:33.465Z,47.28
2022-10-21T23:39:00.177Z,44.17
2022-10-21T23:41:26.581Z,45.58
2022-10-21T23:43:53.165Z,46.10
2022-10-21T23:46:21.004Z,45.25
2022-10-21T23:48:47.436Z,45.33
2022-10-21T23:51:13.864Z,45.28
2022-10-21T23:53:40.453Z,44.92
2022-10-21T23:56:07.316Z,46.65
2022-10-21T23:58:33.829Z,44.63
